METAR Data
IDs: Format: Raw Decoded Include TAF

Data at: 0302 UTC 25 Feb 2021

RJOT 250200Z 04007KT 340V100 9999 FEW030 07/M01 Q1024